createdAt,value
2018-03-16T00:00:24.790Z,0.00
2018-03-16T00:01:24.807Z,0.00
2018-03-16T00:02:24.824Z,0.00
2018-03-16T00:03:24.841Z,0.00
2018-03-16T00:04:24.856Z,0.00
2018-03-16T00:05:24.873Z,0.00
2018-03-16T00:06:24.890Z,0.00
2018-03-16T00:07:24.910Z,0.00
2018-03-16T00:08:24.925Z,0.00
2018-03-16T00:09:24.937Z,0.00
2018-03-16T00:10:24.955Z,0.00
2018-03-16T00:11:24.972Z,0.00
2018-03-16T00:12:24.988Z,0.00
2018-03-16T00:13:25.007Z,0.00
2018-03-16T00:14:25.023Z,0.00
2018-03-16T00:15:25.040Z,0.00
2018-03-16T00:16:25.054Z,0.00
2018-03-16T00:17:25.070Z,0.00
2018-03-16T00:18:25.089Z,0.00
2018-03-16T00:19:25.106Z,0.00
2018-03-16T00:20:25.122Z,0.00
2018-03-16T00:21:25.140Z,0.00
2018-03-16T00:22:25.155Z,0.00
2018-03-16T00:23:25.168Z,0.00
2018-03-16T00:24:25.186Z,0.00
2018-03-16T00:25:25.202Z,0.00
2018-03-16T00:26:25.230Z,0.00
2018-03-16T00:27:25.237Z,0.00
2018-03-16T00:28:25.253Z,0.00
2018-03-16T00:29:25.270Z,0.00
2018-03-16T00:30:25.286Z,0.00
2018-03-16T00:31:25.306Z,0.00
2018-03-16T00:32:25.323Z,0.00
2018-03-16T00:33:25.334Z,0.00
2018-03-16T00:34:25.351Z,0.00
2018-03-16T00:35:25.367Z,0.00
2018-03-16T00:36:25.385Z,0.00
2018-03-16T00:37:25.404Z,0.00
2018-03-16T00:38:25.419Z,0.00
2018-03-16T00:39:25.434Z,0.00
2018-03-16T00:40:25.451Z,0.00
2018-03-16T00:41:25.467Z,0.00
2018-03-16T00:42:25.483Z,0.00
2018-03-16T00:43:25.500Z,0.00
2018-03-16T00:44:25.543Z,0.00
2018-03-16T00:45:25.541Z,0.00
2018-03-16T00:46:25.550Z,0.00
2018-03-16T00:47:25.565Z,0.00
2018-03-16T00:48:25.583Z,0.00
2018-03-16T00:49:25.599Z,0.00
2018-03-16T00:50:25.615Z,0.00
2018-03-16T00:51:25.631Z,0.00
2018-03-16T00:52:25.651Z,0.00
2018-03-16T00:53:25.665Z,0.00
2018-03-16T00:54:25.681Z,0.00
2018-03-16T00:55:25.698Z,0.00
2018-03-16T00:56:25.715Z,0.00
2018-03-16T00:57:25.729Z,0.00
2018-03-16T00:58:25.746Z,0.00
2018-03-16T00:59:25.764Z,0.00
2018-03-16T01:00:25.783Z,0.00
2018-03-16T01:01:25.796Z,0.00
2018-03-16T01:02:25.813Z,0.00
2018-03-16T01:03:25.830Z,0.00
2018-03-16T01:04:25.845Z,0.00
2018-03-16T01:05:25.862Z,0.00
2018-03-16T01:06:25.879Z,0.00
2018-03-16T01:07:25.900Z,0.00
2018-03-16T01:08:25.912Z,0.00
2018-03-16T01:09:25.926Z,0.00
2018-03-16T01:10:25.944Z,0.00
2018-03-16T01:11:25.961Z,0.00
2018-03-16T01:12:25.979Z,0.00
2018-03-16T01:13:25.994Z,0.00
2018-03-16T01:14:26.038Z,0.00
2018-03-16T01:15:26.033Z,0.00
2018-03-16T01:16:26.051Z,0.00
2018-03-16T01:17:26.061Z,0.00
2018-03-16T01:18:26.078Z,0.00
2018-03-16T01:19:26.092Z,0.00
2018-03-16T01:20:26.109Z,0.00
2018-03-16T01:21:26.130Z,0.00
2018-03-16T01:22:26.142Z,0.00
2018-03-16T01:23:26.160Z,0.00
2018-03-16T01:24:26.176Z,0.00
2018-03-16T01:25:26.190Z,0.00
2018-03-16T01:26:26.208Z,0.00
2018-03-16T01:27:26.226Z,0.00
2018-03-16T01:28:26.241Z,0.00
2018-03-16T01:29:26.257Z,0.00
2018-03-16T01:30:26.274Z,0.00
2018-03-16T01:31:26.293Z,0.00
2018-03-16T01:32:26.306Z,0.00
2018-03-16T01:33:26.323Z,0.00
2018-03-16T01:34:26.347Z,0.00
2018-03-16T01:35:26.357Z,0.00
2018-03-16T01:36:26.372Z,0.00
2018-03-16T01:37:26.389Z,0.00
2018-03-16T01:38:26.405Z,0.00
2018-03-16T01:39:26.426Z,0.00
2018-03-16T01:40:26.443Z,0.00
2018-03-16T01:41:26.455Z,0.00
2018-03-16T01:42:26.472Z,0.00
2018-03-16T01:43:26.489Z,0.00
2018-03-16T01:44:26.505Z,0.00
2018-03-16T01:45:26.524Z,0.00
2018-03-16T01:46:26.536Z,0.00
2018-03-16T01:47:26.553Z,0.00
2018-03-16T01:48:26.573Z,0.00
2018-03-16T01:49:26.589Z,0.00
2018-03-16T01:50:26.603Z,0.00
2018-03-16T01:51:26.624Z,0.00
2018-03-16T01:52:26.637Z,0.00
2018-03-16T01:53:26.654Z,0.00
2018-03-16T01:54:26.676Z,0.00
2018-03-16T01:55:26.687Z,0.00
2018-03-16T01:56:26.706Z,0.00
2018-03-16T01:57:26.719Z,0.00
2018-03-16T01:58:26.736Z,0.00
2018-03-16T01:59:26.752Z,0.00
2018-03-16T02:00:26.769Z,0.00
2018-03-16T02:01:26.784Z,0.00
2018-03-16T02:02:26.802Z,0.00
2018-03-16T02:03:26.817Z,0.00
2018-03-16T02:04:26.834Z,0.00
2018-03-16T02:05:26.853Z,0.00
2018-03-16T02:06:26.867Z,0.00
2018-03-16T02:07:26.885Z,0.00
2018-03-16T02:08:26.901Z,0.00
2018-03-16T02:09:26.919Z,0.00
2018-03-16T02:10:26.934Z,0.00
2018-03-16T02:11:26.958Z,0.00
2018-03-16T02:12:26.971Z,0.00
2018-03-16T02:13:26.983Z,0.00
2018-03-16T02:14:27.000Z,0.00
2018-03-16T02:15:27.017Z,0.00
2018-03-16T02:16:27.033Z,0.00
2018-03-16T02:17:27.050Z,0.00
2018-03-16T02:18:27.075Z,0.00
2018-03-16T02:19:27.084Z,0.00
2018-03-16T02:20:27.100Z,0.00
2018-03-16T02:21:27.116Z,0.00
2018-03-16T02:22:27.134Z,0.00
2018-03-16T02:23:27.153Z,0.00
2018-03-16T02:24:27.171Z,0.00
2018-03-16T02:25:27.182Z,0.00
2018-03-16T02:26:27.201Z,0.00
2018-03-16T02:27:27.218Z,0.00
2018-03-16T02:28:27.232Z,0.00
2018-03-16T02:29:27.252Z,0.00
2018-03-16T02:30:27.267Z,0.00
2018-03-16T02:31:27.284Z,0.00
2018-03-16T02:32:27.306Z,0.00
2018-03-16T02:33:27.318Z,0.00
2018-03-16T02:34:27.337Z,0.00
2018-03-16T02:35:27.352Z,0.00
2018-03-16T02:36:27.366Z,0.00
2018-03-16T02:37:27.383Z,0.00
2018-03-16T02:38:27.401Z,0.00
2018-03-16T02:39:27.417Z,0.00
2018-03-16T02:40:27.434Z,0.00
2018-03-16T02:41:27.449Z,0.00
2018-03-16T02:42:27.465Z,0.00
2018-03-16T02:43:27.484Z,0.00
2018-03-16T02:44:27.502Z,0.00
2018-03-16T02:45:27.517Z,0.00
2018-03-16T02:46:27.535Z,0.00
2018-03-16T02:47:27.553Z,0.00
2018-03-16T02:48:27.574Z,0.00
2018-03-16T02:49:27.583Z,0.00
2018-03-16T02:50:27.603Z,0.00
2018-03-16T02:51:27.618Z,0.00
2018-03-16T02:52:27.634Z,0.00
2018-03-16T02:53:27.652Z,0.00
2018-03-16T02:54:27.669Z,0.00
2018-03-16T02:55:27.684Z,0.00
2018-03-16T02:56:27.702Z,0.00
2018-03-16T02:57:27.719Z,0.00
2018-03-16T02:58:27.734Z,0.00
2018-03-16T02:59:27.753Z,0.00
2018-03-16T03:00:27.768Z,0.00
2018-03-16T03:01:27.784Z,0.00
2018-03-16T03:02:27.801Z,0.00
2018-03-16T03:03:27.816Z,0.00
2018-03-16T03:04:27.836Z,0.00
2018-03-16T03:05:27.850Z,0.00
2018-03-16T03:06:27.868Z,0.00
2018-03-16T05:06:18.215Z,0.00
2018-03-16T05:07:18.199Z,0.00
2018-03-16T05:09:11.137Z,0.00
2018-03-16T05:10:11.110Z,0.00
2018-03-16T05:12:04.039Z,0.00
2018-03-16T05:13:04.024Z,0.00
2018-03-16T05:14:56.936Z,0.00
2018-03-16T05:15:56.944Z,0.00
2018-03-16T05:17:49.875Z,0.00
2018-03-16T05:18:49.864Z,0.00
2018-03-16T05:20:42.777Z,0.00
2018-03-16T05:21:42.788Z,0.00
2018-03-16T05:23:35.743Z,0.00
2018-03-16T05:24:35.713Z,0.00
2018-03-16T05:26:28.653Z,0.00
2018-03-16T05:27:28.640Z,0.00
2018-03-16T05:29:21.557Z,4.00
2018-03-16T05:30:21.568Z,0.00
2018-03-16T05:32:14.500Z,4.00
2018-03-16T05:33:14.491Z,4.00
2018-03-16T05:35:07.412Z,4.00
2018-03-16T05:36:07.420Z,4.00
2018-03-16T05:38:00.359Z,8.00
2018-03-16T05:39:00.346Z,8.00
2018-03-16T05:40:53.267Z,12.00
2018-03-16T05:41:53.278Z,12.00
2018-03-16T05:43:46.217Z,16.00
2018-03-16T05:44:46.213Z,20.00
2018-03-16T05:46:39.152Z,20.00
2018-03-16T05:47:39.141Z,24.00
2018-03-16T05:49:32.060Z,28.00
2018-03-16T05:50:32.071Z,32.00
2018-03-16T05:52:25.012Z,36.00
2018-03-16T05:53:25.001Z,40.00
2018-03-16T05:55:17.918Z,52.00
2018-03-16T05:56:17.929Z,60.00
2018-03-16T05:58:11.365Z,80.00
2018-03-16T05:59:11.353Z,92.00
2018-03-16T06:01:04.288Z,116.00
2018-03-16T06:02:04.286Z,128.00
2018-03-16T06:03:57.224Z,148.00
2018-03-16T06:04:57.216Z,164.00
2018-03-16T06:06:50.160Z,184.00
2018-03-16T06:07:50.151Z,184.00
2018-03-16T06:09:43.070Z,188.00
2018-03-16T06:10:43.082Z,192.00
2018-03-16T06:12:36.020Z,200.00
2018-03-16T06:13:36.010Z,208.00
2018-03-16T06:15:28.927Z,236.00
2018-03-16T06:16:28.940Z,260.00
2018-03-16T06:18:22.375Z,316.00
2018-03-16T06:19:22.365Z,332.00
2018-03-16T06:21:15.286Z,328.00
2018-03-16T06:22:15.296Z,324.00
2018-03-16T06:24:08.232Z,320.00
2018-03-16T06:25:08.225Z,324.00
2018-03-16T06:27:01.189Z,324.00
2018-03-16T06:28:01.162Z,324.00
2018-03-16T06:29:54.146Z,320.00
2018-03-16T06:30:54.157Z,328.00
2018-03-16T06:32:47.223Z,388.00
2018-03-16T06:33:47.212Z,432.00
2018-03-16T06:35:40.260Z,480.00
2018-03-16T06:36:40.270Z,516.00
2018-03-16T06:38:33.297Z,576.00
2018-03-16T06:39:33.287Z,592.00
2018-03-16T06:41:26.208Z,596.00
2018-03-16T06:42:26.218Z,632.00
2018-03-16T06:44:19.158Z,724.00
2018-03-16T06:45:19.149Z,768.00
2018-03-16T06:47:12.069Z,844.00
2018-03-16T06:48:12.084Z,892.00
2018-03-16T06:50:05.038Z,928.00
2018-03-16T06:51:05.015Z,944.00
2018-03-16T06:52:57.957Z,1000.00
2018-03-16T06:53:57.951Z,1000.00
2018-03-16T06:55:50.878Z,964.00
2018-03-16T06:56:50.891Z,964.00
2018-03-16T06:58:43.828Z,1044.00
2018-03-16T06:59:43.819Z,1092.00
2018-03-16T07:01:36.748Z,1112.00
2018-03-16T07:02:36.758Z,1068.00
2018-03-16T07:04:29.700Z,992.00
2018-03-16T07:05:29.689Z,960.00
2018-03-16T07:07:22.615Z,888.00
2018-03-16T07:08:22.625Z,852.00
2018-03-16T07:10:15.565Z,776.00
2018-03-16T07:11:15.557Z,744.00
2018-03-16T07:13:08.498Z,712.00
2018-03-16T07:14:08.490Z,692.00
2018-03-16T07:16:01.414Z,656.00
2018-03-16T07:17:01.420Z,636.00
2018-03-16T07:18:54.369Z,576.00
2018-03-16T07:19:54.360Z,548.00
2018-03-16T07:21:47.366Z,568.00
2018-03-16T07:22:47.386Z,604.00
2018-03-16T07:24:40.374Z,728.00
2018-03-16T07:25:40.328Z,812.00
2018-03-16T07:27:33.319Z,972.00
2018-03-16T07:28:33.285Z,1052.00
2018-03-16T07:30:26.223Z,1184.00
2018-03-16T07:31:26.216Z,1208.00
2018-03-16T07:33:19.193Z,1180.00
2018-03-16T07:34:19.179Z,1144.00
2018-03-16T07:36:12.073Z,1148.00
2018-03-16T07:37:12.093Z,1184.00
2018-03-16T07:39:05.033Z,1276.00
2018-03-16T07:40:05.026Z,1320.00
2018-03-16T07:41:57.945Z,1348.00
2018-03-16T07:42:57.962Z,1348.00
2018-03-16T07:44:50.909Z,1348.00
2018-03-16T07:45:50.902Z,1352.00
2018-03-16T07:47:43.820Z,1380.00
2018-03-16T07:48:43.829Z,1380.00
2018-03-16T07:50:36.781Z,1316.00
2018-03-16T07:51:36.771Z,1272.00
2018-03-16T07:53:29.712Z,1256.00
2018-03-16T07:54:29.702Z,1284.00
2018-03-16T07:56:22.623Z,1352.00
2018-03-16T07:57:22.635Z,1368.00
2018-03-16T07:59:15.581Z,1352.00
2018-03-16T08:00:15.571Z,1352.00
2018-03-16T08:02:08.498Z,1400.00
2018-03-16T08:03:08.509Z,1400.00
2018-03-16T08:05:01.445Z,1480.00
2018-03-16T08:06:01.438Z,1592.00
2018-03-16T08:07:54.357Z,1724.00
2018-03-16T08:08:54.369Z,1724.00
2018-03-16T08:10:47.316Z,1712.00
2018-03-16T08:11:47.303Z,1744.00
2018-03-16T08:13:40.242Z,1800.00
2018-03-16T08:14:40.233Z,1856.00
2018-03-16T08:16:33.156Z,1992.00
2018-03-16T08:17:33.171Z,2040.00
2018-03-16T08:19:26.109Z,2116.00
2018-03-16T08:20:26.104Z,2072.00
2018-03-16T08:22:19.026Z,1912.00
2018-03-16T08:23:19.039Z,1880.00
2018-03-16T08:25:11.980Z,1932.00
2018-03-16T08:26:11.986Z,2016.00
2018-03-16T08:28:04.950Z,2124.00
2018-03-16T08:29:04.907Z,2052.00
2018-03-16T08:30:57.869Z,1788.00
2018-03-16T08:31:57.865Z,1668.00
2018-03-16T08:33:50.783Z,1508.00
2018-03-16T08:34:50.775Z,1436.00
2018-03-16T08:36:43.706Z,1284.00
2018-03-16T08:37:43.713Z,1216.00
2018-03-16T08:39:36.697Z,1100.00
2018-03-16T08:40:36.647Z,1056.00
2018-03-16T08:42:29.573Z,1024.00
2018-03-16T08:43:29.583Z,1028.00
2018-03-16T08:45:22.523Z,1036.00
2018-03-16T08:46:22.516Z,1020.00
2018-03-16T08:48:15.438Z,984.00
2018-03-16T08:49:15.449Z,972.00
2018-03-16T08:51:08.395Z,976.00
2018-03-16T08:52:08.383Z,992.00
2018-03-16T08:54:01.830Z,1052.00
2018-03-16T08:55:01.815Z,1084.00
2018-03-16T08:56:54.763Z,1116.00
2018-03-16T08:57:54.753Z,1136.00
2018-03-16T08:59:47.740Z,1196.00
2018-03-16T09:00:47.691Z,1248.00
2018-03-16T09:02:40.614Z,1352.00
2018-03-16T09:03:40.625Z,1396.00
2018-03-16T09:05:33.567Z,1424.00
2018-03-16T09:06:33.558Z,1428.00
2018-03-16T09:08:26.477Z,1424.00
2018-03-16T09:09:26.496Z,1452.00
2018-03-16T09:11:19.708Z,1532.00
2018-03-16T09:12:19.429Z,1584.00
2018-03-16T09:13:19.445Z,1628.00
2018-03-16T09:14:19.466Z,1668.00
2018-03-16T09:15:19.481Z,1660.00
2018-03-16T09:16:19.501Z,1668.00
2018-03-16T09:17:19.557Z,1640.00
2018-03-16T09:18:19.560Z,1648.00
2018-03-16T09:19:19.551Z,1660.00
2018-03-16T09:20:19.672Z,1636.00
2018-03-16T09:21:19.591Z,1624.00
2018-03-16T09:22:19.631Z,1628.00
2018-03-16T09:23:19.616Z,1636.00
2018-03-16T09:24:19.638Z,1588.00
2018-03-16T09:25:19.652Z,1516.00
2018-03-16T09:26:19.671Z,1500.00
2018-03-16T09:27:19.690Z,1512.00
2018-03-16T09:28:19.768Z,1520.00
2018-03-16T09:29:19.731Z,1552.00
2018-03-16T09:30:19.751Z,1600.00
2018-03-16T09:31:19.796Z,1620.00
2018-03-16T09:32:19.783Z,1648.00
2018-03-16T09:33:19.801Z,1688.00
2018-03-16T09:34:19.819Z,1692.00
2018-03-16T09:35:19.865Z,1700.00
2018-03-16T09:36:19.853Z,1672.00
2018-03-16T09:37:19.869Z,1664.00
2018-03-16T09:38:19.886Z,1688.00
2018-03-16T09:39:19.908Z,1680.00
2018-03-16T09:40:19.925Z,1628.00
2018-03-16T09:41:19.949Z,1500.00
2018-03-16T09:42:19.959Z,1372.00
2018-03-16T09:43:19.980Z,1284.00
2018-03-16T09:44:19.998Z,1224.00
2018-03-16T09:45:20.018Z,1156.00
2018-03-16T09:46:20.034Z,1144.00
2018-03-16T09:47:20.048Z,1164.00
2018-03-16T09:48:20.066Z,1224.00
2018-03-16T09:49:20.098Z,1336.00
2018-03-16T09:50:20.100Z,1412.00
2018-03-16T09:51:20.132Z,1444.00
2018-03-16T09:52:20.137Z,1492.00
2018-03-16T09:53:20.161Z,1464.00
2018-03-16T09:54:20.180Z,1448.00
2018-03-16T09:55:20.190Z,1396.00
2018-03-16T09:56:20.221Z,1372.00
2018-03-16T09:57:20.237Z,1400.00
2018-03-16T09:58:20.248Z,1428.00
2018-03-16T09:59:20.261Z,1460.00
2018-03-16T10:00:20.286Z,1456.00
2018-03-16T10:01:20.304Z,1464.00
2018-03-16T10:02:20.315Z,1468.00
2018-03-16T10:03:20.337Z,1440.00
2018-03-16T10:04:20.361Z,1388.00
2018-03-16T10:05:20.374Z,1376.00
2018-03-16T10:06:20.390Z,1384.00
2018-03-16T10:07:20.409Z,1388.00
2018-03-16T10:08:20.427Z,1336.00
2018-03-16T10:09:20.440Z,1292.00
2018-03-16T10:10:20.457Z,1288.00
2018-03-16T10:11:20.505Z,1312.00
2018-03-16T10:12:20.495Z,1356.00
2018-03-16T10:13:20.511Z,1404.00
2018-03-16T10:14:20.534Z,1444.00
2018-03-16T10:15:20.610Z,1440.00
2018-03-16T10:16:20.568Z,1448.00
2018-03-16T10:17:20.616Z,1464.00
2018-03-16T10:18:20.598Z,1496.00
2018-03-16T10:19:20.624Z,1480.00
2018-03-16T10:20:20.640Z,1472.00
2018-03-16T10:21:20.677Z,1480.00
2018-03-16T10:22:20.669Z,1480.00
2018-03-16T10:23:20.693Z,1496.00
2018-03-16T10:24:20.750Z,1508.00
2018-03-16T10:25:20.732Z,1528.00
2018-03-16T10:26:20.739Z,1524.00
2018-03-16T10:27:20.757Z,1572.00
2018-03-16T10:28:20.775Z,1620.00
2018-03-16T10:29:20.793Z,1708.00
2018-03-16T10:30:20.809Z,1764.00
2018-03-16T10:31:20.834Z,1816.00
2018-03-16T10:32:20.850Z,1852.00
2018-03-16T10:33:20.869Z,2008.00
2018-03-16T10:34:20.884Z,2112.00
2018-03-16T10:35:20.907Z,2216.00
2018-03-16T10:36:20.920Z,2368.00
2018-03-16T10:37:20.940Z,2496.00
2018-03-16T10:38:20.951Z,2484.00
2018-03-16T10:39:20.969Z,2376.00
2018-03-16T10:40:20.989Z,2320.00
2018-03-16T10:41:21.005Z,2200.00
2018-03-16T10:42:21.028Z,2132.00
2018-03-16T10:43:21.044Z,2148.00
2018-03-16T10:44:21.062Z,2156.00
2018-03-16T10:45:21.082Z,2176.00
2018-03-16T10:46:21.099Z,2200.00
2018-03-16T10:47:21.117Z,2244.00
2018-03-16T10:48:21.153Z,2368.00
2018-03-16T10:49:21.155Z,2488.00
2018-03-16T10:50:21.168Z,2596.00
2018-03-16T10:51:21.180Z,2568.00
2018-03-16T10:52:21.200Z,2548.00
2018-03-16T10:53:21.217Z,2636.00
2018-03-16T10:54:21.240Z,2656.00
2018-03-16T10:55:21.258Z,2620.00
2018-03-16T10:56:21.274Z,2632.00
2018-03-16T10:57:21.294Z,2648.00
2018-03-16T10:58:21.309Z,2608.00
2018-03-16T10:59:21.328Z,2592.00
2018-03-16T11:00:21.341Z,2516.00
2018-03-16T11:01:21.384Z,2556.00
2018-03-16T11:02:21.393Z,2520.00
2018-03-16T11:03:21.400Z,2428.00
2018-03-16T11:04:21.412Z,2360.00
2018-03-16T11:05:21.440Z,2364.00
2018-03-16T11:06:21.464Z,2388.00
2018-03-16T11:07:21.470Z,2396.00
2018-03-16T11:08:21.555Z,2336.00
2018-03-16T11:09:21.565Z,2272.00
2018-03-16T11:10:21.520Z,2260.00
2018-03-16T11:11:21.560Z,2240.00
2018-03-16T11:12:21.566Z,2248.00
2018-03-16T11:13:21.586Z,2184.00
2018-03-16T11:16:50.299Z,2308.00
2018-03-16T12:53:38.067Z,1752.00
2018-03-16T12:54:38.066Z,1884.00
2018-03-16T12:56:31.017Z,2232.00
2018-03-16T12:57:31.007Z,2452.00
2018-03-16T12:59:24.055Z,2772.00
2018-03-16T13:00:24.064Z,2796.00
2018-03-16T13:02:17.008Z,2520.00
2018-03-16T13:03:16.998Z,2348.00
2018-03-16T13:05:09.915Z,1952.00
2018-03-16T13:06:09.929Z,1828.00
2018-03-16T13:08:03.362Z,1644.00
2018-03-16T13:09:03.352Z,1588.00
2018-03-16T13:10:56.274Z,1496.00
2018-03-16T13:11:56.284Z,1492.00
2018-03-16T13:13:49.239Z,1456.00
2018-03-16T13:14:49.211Z,1416.00
2018-03-16T13:16:42.167Z,1328.00
2018-03-16T13:17:42.148Z,1288.00
2018-03-16T13:19:35.065Z,1284.00
2018-03-16T13:20:35.076Z,1296.00
2018-03-16T13:22:28.016Z,1256.00
2018-03-16T13:23:28.005Z,1276.00
2018-03-16T13:25:20.922Z,1240.00
2018-03-16T13:26:20.933Z,1164.00
2018-03-16T13:28:13.881Z,1276.00
2018-03-16T13:29:13.862Z,1292.00
2018-03-16T13:31:06.783Z,1636.00
2018-03-16T13:32:06.868Z,1772.00
2018-03-16T13:33:59.736Z,2196.00
2018-03-16T13:34:59.729Z,2380.00
2018-03-16T13:36:52.667Z,2696.00
2018-03-16T13:37:52.660Z,2624.00
2018-03-16T13:39:45.597Z,2712.00
2018-03-16T13:40:45.592Z,2740.00
2018-03-16T13:42:38.508Z,2752.00
2018-03-16T13:43:38.519Z,2756.00
2018-03-16T13:45:31.463Z,2724.00
2018-03-16T13:46:31.469Z,2660.00
2018-03-16T13:48:24.410Z,2644.00
2018-03-16T13:49:24.397Z,2676.00
2018-03-16T13:51:18.797Z,2788.00
2018-03-16T13:52:18.805Z,2864.00
2018-03-16T13:54:11.779Z,3036.00
2018-03-16T13:55:11.743Z,3128.00
2018-03-16T13:57:04.654Z,3264.00
2018-03-16T13:58:04.664Z,3276.00
2018-03-16T13:59:57.604Z,3348.00
2018-03-16T14:00:57.597Z,3360.00
2018-03-16T14:02:50.517Z,3420.00
2018-03-16T14:03:50.546Z,3412.00
2018-03-16T14:05:43.465Z,3216.00
2018-03-16T14:06:43.455Z,2828.00
2018-03-16T14:08:36.377Z,2788.00
2018-03-16T14:09:36.393Z,2836.00
2018-03-16T14:11:29.331Z,2600.00
2018-03-16T14:12:29.322Z,2776.00
2018-03-16T14:14:22.240Z,2864.00
2018-03-16T14:15:22.257Z,2728.00
2018-03-16T14:17:15.192Z,2760.00
2018-03-16T14:18:15.181Z,2740.00
2018-03-16T14:20:08.119Z,2556.00
2018-03-16T14:21:08.113Z,2620.00
2018-03-16T14:23:01.061Z,2652.00
2018-03-16T14:24:01.081Z,2576.00
2018-03-16T14:25:53.982Z,2364.00
2018-03-16T14:26:53.976Z,2268.00
2018-03-16T14:28:46.911Z,2232.00
2018-03-16T14:29:46.905Z,2264.00
2018-03-16T14:31:39.846Z,2392.00
2018-03-16T14:32:39.838Z,2476.00
2018-03-16T14:34:32.761Z,2548.00
2018-03-16T14:35:32.778Z,2596.00
2018-03-16T14:37:25.725Z,2724.00
2018-03-16T14:38:25.701Z,2620.00
2018-03-16T14:40:18.619Z,2428.00
2018-03-16T14:41:18.630Z,2532.00
2018-03-16T14:43:11.573Z,2228.00
2018-03-16T14:44:11.564Z,2384.00
2018-03-16T14:46:04.483Z,2012.00
2018-03-16T14:47:04.494Z,1656.00
2018-03-16T14:48:57.436Z,1416.00
2018-03-16T14:49:57.428Z,1736.00
2018-03-16T14:51:50.380Z,1240.00
2018-03-16T14:52:50.364Z,1028.00
2018-03-16T14:54:43.278Z,1056.00
2018-03-16T14:55:43.288Z,940.00
2018-03-16T14:57:36.229Z,852.00
2018-03-16T14:58:36.224Z,992.00
2018-03-16T15:00:29.139Z,1012.00
2018-03-16T15:01:29.148Z,1068.00
2018-03-16T15:03:22.090Z,1160.00
2018-03-16T15:04:22.078Z,1152.00
2018-03-16T15:06:14.997Z,1160.00
2018-03-16T15:07:15.006Z,1032.00
2018-03-16T15:09:07.947Z,1048.00
2018-03-16T15:10:07.972Z,1016.00
2018-03-16T15:12:00.859Z,928.00
2018-03-16T15:13:00.870Z,908.00
2018-03-16T15:14:53.814Z,708.00
2018-03-16T15:15:53.797Z,708.00
2018-03-16T15:17:46.756Z,724.00
2018-03-16T15:18:46.729Z,844.00
2018-03-16T15:20:39.651Z,664.00
2018-03-16T15:21:39.701Z,740.00
2018-03-16T15:23:32.603Z,628.00
2018-03-16T15:24:32.581Z,764.00
2018-03-16T15:26:25.501Z,756.00
2018-03-16T15:27:25.517Z,756.00
2018-03-16T15:29:18.455Z,772.00
2018-03-16T15:30:18.444Z,768.00
2018-03-16T15:32:11.362Z,764.00
2018-03-16T15:33:11.370Z,820.00
2018-03-16T15:35:04.314Z,980.00
2018-03-16T15:36:04.301Z,976.00
2018-03-16T15:37:57.221Z,1004.00
2018-03-16T15:38:57.233Z,916.00
2018-03-16T15:40:50.171Z,820.00
2018-03-16T15:41:50.224Z,928.00
2018-03-16T15:43:43.104Z,952.00
2018-03-16T15:44:43.088Z,888.00
2018-03-16T15:46:36.007Z,972.00
2018-03-16T15:47:36.019Z,992.00
2018-03-16T15:49:28.957Z,904.00
2018-03-16T15:50:28.947Z,960.00
2018-03-16T15:52:21.867Z,840.00
2018-03-16T15:53:21.881Z,964.00
2018-03-16T15:55:14.825Z,968.00
2018-03-16T15:56:14.812Z,988.00
2018-03-16T15:58:07.735Z,1044.00
2018-03-16T15:59:07.741Z,880.00
2018-03-16T16:01:00.680Z,844.00
2018-03-16T16:02:00.669Z,876.00
2018-03-16T16:03:53.588Z,844.00
2018-03-16T16:04:53.598Z,660.00
2018-03-16T16:06:46.531Z,608.00
2018-03-16T16:07:46.526Z,632.00
2018-03-16T16:09:39.445Z,528.00
2018-03-16T16:10:39.452Z,576.00
2018-03-16T16:12:32.395Z,576.00
2018-03-16T16:13:32.380Z,552.00
2018-03-16T16:15:25.314Z,532.00
2018-03-16T16:16:25.309Z,544.00
2018-03-16T16:18:18.221Z,520.00
2018-03-16T16:19:18.234Z,520.00
2018-03-16T16:21:11.170Z,496.00
2018-03-16T16:22:11.159Z,488.00
2018-03-16T16:24:04.081Z,528.00
2018-03-16T16:25:04.093Z,572.00
2018-03-16T16:26:57.057Z,588.00
2018-03-16T16:27:57.021Z,636.00
2018-03-16T16:29:49.941Z,572.00
2018-03-16T16:30:49.947Z,612.00
2018-03-16T16:32:42.888Z,620.00
2018-03-16T16:33:42.873Z,544.00
2018-03-16T16:35:35.794Z,576.00
2018-03-16T16:36:35.803Z,500.00
2018-03-16T16:38:28.749Z,544.00
2018-03-16T16:39:28.734Z,544.00
2018-03-16T16:41:21.673Z,512.00
2018-03-16T16:42:21.690Z,488.00
2018-03-16T16:44:14.634Z,432.00
2018-03-16T16:45:14.592Z,400.00
2018-03-16T16:47:07.524Z,400.00
2018-03-16T16:48:07.512Z,376.00
2018-03-16T16:50:00.426Z,368.00
2018-03-16T16:51:00.435Z,348.00
2018-03-16T16:52:53.372Z,344.00
2018-03-16T16:53:53.362Z,348.00
2018-03-16T16:55:46.282Z,352.00
2018-03-16T16:56:46.289Z,364.00
2018-03-16T16:58:39.226Z,404.00
2018-03-16T16:59:39.216Z,416.00
2018-03-16T17:01:32.133Z,392.00
2018-03-16T17:02:32.145Z,388.00
2018-03-16T17:04:25.074Z,356.00
2018-03-16T17:05:25.067Z,348.00
2018-03-16T17:07:18.004Z,288.00
2018-03-16T17:08:17.991Z,252.00
2018-03-16T17:10:10.908Z,208.00
2018-03-16T17:11:10.920Z,200.00
2018-03-16T17:13:03.856Z,172.00
2018-03-16T17:14:03.848Z,160.00
2018-03-16T17:15:56.763Z,128.00
2018-03-16T17:16:56.792Z,120.00
2018-03-16T17:18:49.703Z,104.00
2018-03-16T17:19:49.694Z,96.00
2018-03-16T17:21:42.621Z,80.00
2018-03-16T17:22:42.622Z,72.00
2018-03-16T17:24:35.557Z,64.00
2018-03-16T17:25:35.544Z,52.00
2018-03-16T17:27:28.528Z,48.00
2018-03-16T17:28:28.474Z,40.00
2018-03-16T17:30:21.388Z,32.00
2018-03-16T17:31:21.397Z,36.00
2018-03-16T17:33:14.336Z,24.00
2018-03-16T17:34:14.323Z,28.00
2018-03-16T17:36:07.242Z,20.00
2018-03-16T17:37:07.249Z,20.00
2018-03-16T17:39:00.191Z,16.00
2018-03-16T17:40:00.176Z,16.00
2018-03-16T17:41:53.094Z,12.00
2018-03-16T17:42:53.110Z,16.00
2018-03-16T17:44:46.038Z,8.00
2018-03-16T17:45:46.028Z,8.00
2018-03-16T17:47:38.946Z,4.00
2018-03-16T17:48:38.949Z,4.00
2018-03-16T17:50:31.887Z,4.00
2018-03-16T17:51:31.875Z,4.00
2018-03-16T17:53:24.807Z,4.00
2018-03-16T17:54:24.796Z,0.00
2018-03-16T17:56:17.717Z,0.00
2018-03-16T17:57:17.723Z,4.00
2018-03-16T17:59:10.663Z,4.00
2018-03-16T18:00:10.649Z,0.00
2018-03-16T18:02:03.571Z,0.00
2018-03-16T18:03:03.573Z,0.00
2018-03-16T18:04:56.512Z,0.00
2018-03-16T18:05:56.503Z,0.00
2018-03-16T18:07:49.415Z,0.00
2018-03-16T18:08:49.424Z,0.00
2018-03-16T18:10:42.362Z,0.00
2018-03-16T18:11:42.379Z,0.00
2018-03-16T18:13:35.267Z,0.00
2018-03-16T18:14:35.282Z,0.00
2018-03-16T18:16:28.214Z,0.00
2018-03-16T18:17:28.199Z,0.00
2018-03-16T18:19:21.134Z,0.00
2018-03-16T18:20:21.121Z,0.00
2018-03-16T18:22:14.040Z,0.00
2018-03-16T18:23:14.053Z,0.00
2018-03-16T18:25:06.982Z,0.00
2018-03-16T18:26:06.970Z,0.00
2018-03-16T18:27:59.889Z,0.00
2018-03-16T18:28:59.896Z,0.00
2018-03-16T18:30:52.827Z,0.00
2018-03-16T18:31:52.817Z,0.00
2018-03-16T18:33:45.736Z,0.00
2018-03-16T18:34:45.740Z,0.00
2018-03-16T18:36:38.676Z,0.00
2018-03-16T18:37:38.663Z,0.00
2018-03-16T18:39:31.581Z,0.00
2018-03-16T18:40:31.586Z,0.00
2018-03-16T18:42:24.521Z,0.00
2018-03-16T18:43:24.506Z,0.00
2018-03-16T18:45:17.452Z,0.00
2018-03-16T18:46:17.431Z,0.00
2018-03-16T18:48:10.353Z,0.00
2018-03-16T18:49:10.357Z,0.00
2018-03-16T18:51:03.293Z,0.00
2018-03-16T18:52:03.289Z,0.00
2018-03-16T18:53:56.211Z,0.00
2018-03-16T18:54:56.201Z,0.00
2018-03-16T18:56:49.140Z,0.00
2018-03-16T18:57:49.165Z,0.00
2018-03-16T18:58:49.140Z,0.00
2018-03-16T18:59:49.154Z,0.00
2018-03-16T19:00:49.171Z,0.00
2018-03-16T19:01:49.180Z,0.00
2018-03-16T19:02:49.193Z,0.00
2018-03-16T19:03:49.210Z,0.00
2018-03-16T19:04:49.218Z,0.00
2018-03-16T19:05:49.232Z,0.00
2018-03-16T19:06:49.246Z,0.00
2018-03-16T19:07:49.258Z,0.00
2018-03-16T19:08:49.272Z,0.00
2018-03-16T19:09:49.286Z,0.00
2018-03-16T19:10:49.300Z,0.00
2018-03-16T19:11:49.311Z,0.00
2018-03-16T19:12:49.327Z,0.00
2018-03-16T19:13:49.340Z,0.00
2018-03-16T19:14:49.359Z,0.00
2018-03-16T19:15:49.365Z,0.00
2018-03-16T19:16:49.383Z,0.00
2018-03-16T19:17:49.396Z,0.00
2018-03-16T19:18:49.410Z,0.00
2018-03-16T19:19:49.420Z,0.00
2018-03-16T19:20:49.432Z,0.00
2018-03-16T19:21:49.448Z,0.00